In Tune — VJN3486 — position and weather

sailwx.info

Track history (hours):
 
Tides and Currents Weather Stations Pressure Air Temp Water Temp Dewpoint Dewpoint Depression Visibility Wind Speed Wind Dir Waves Ship Positions

In Tune

Last reported at 2017-Sep-21 07:03 UTC. Time now 2017-Oct-23 06:03 UTC.
Position N 37°42' W 000°42'.
Warning: this ship's position is 31 days out of date.

Length 13 m.

Type: Sailing vessel. MMSI: 503428400.

Date/timePositionNaut miles runAvg speedWind from/ knotsBaromVisibWave heightAir tempDewpointWater temp
2017-Sep-21 07:03N 37°42' W 000°42'0 4.3
2017-Sep-21 06:59N 37°42' W 000°42'2 4.0
2017-Sep-21 06:29N 37°44' W 000°43'  
2017-Sep-14 10:50N 38°53' E 001°27'1 3.9
2017-Sep-14 10:29N 38°54' E 001°28'0 1.0
2017-Sep-14 10:00N 38°55' E 001°27'0 0.0
2017-Sep-13 13:43N 38°55' E 001°27'0 0.0
2017-Sep-13 13:28N 38°55' E 001°27'48 1.6
2017-Sep-12 07:49N 39°23' E 002°17'2 4.9
2017-Sep-12 07:30N 39°24' E 002°19'10 4.9
2017-Sep-12 05:30N 39°27' E 002°31'1 0.1
2017-Sep-11 17:04N 39°28' E 002°32'1 4.4
2017-Sep-11 16:48N 39°27' E 002°31'0 0.5
2017-Sep-11 16:24N 39°27' E 002°31'2 3.2
2017-Sep-11 15:54N 39°28' E 002°33'2 4.0
2017-Sep-11 15:29N 39°30' E 002°33'2 3.9
2017-Sep-11 15:00N 39°31' E 002°35'2 4.3
2017-Sep-11 14:31N 39°32' E 002°37'2 3.6
2017-Sep-11 13:58N 39°34' E 002°39'0 0.0
2017-Sep-11 13:26N 39°34' E 002°39'  
Track history (hours):
 
Tides and Currents Weather Stations Pressure Air Temp Water Temp Dewpoint Dewpoint Depression Visibility Wind Speed Wind Dir Waves Ship Positions

In Tune

Last reported at 2017-Sep-21 07:03 UTC. Time now 2017-Oct-23 06:03 UTC.
Position N 37°42' W 000°42'.
Warning: this ship's position is 31 days out of date.

Length 13 m.

Type: Sailing vessel. MMSI: 503428400.

Date/timePositionNaut miles runAvg speedWind from/ knotsBaromVisibWave heightAir tempDewpointWater temp
2017-Sep-21 07:03N 37°42' W 000°42'0 4.3
2017-Sep-21 06:59N 37°42' W 000°42'2 4.0
2017-Sep-21 06:29N 37°44' W 000°43'  
2017-Sep-14 10:50N 38°53' E 001°27'1 3.9
2017-Sep-14 10:29N 38°54' E 001°28'0 1.0
2017-Sep-14 10:00N 38°55' E 001°27'0 0.0
2017-Sep-13 13:43N 38°55' E 001°27'0 0.0
2017-Sep-13 13:28N 38°55' E 001°27'48 1.6
2017-Sep-12 07:49N 39°23' E 002°17'2 4.9
2017-Sep-12 07:30N 39°24' E 002°19'10 4.9
2017-Sep-12 05:30N 39°27' E 002°31'1 0.1
2017-Sep-11 17:04N 39°28' E 002°32'1 4.4
2017-Sep-11 16:48N 39°27' E 002°31'0 0.5
2017-Sep-11 16:24N 39°27' E 002°31'2 3.2
2017-Sep-11 15:54N 39°28' E 002°33'2 4.0
2017-Sep-11 15:29N 39°30' E 002°33'2 3.9
2017-Sep-11 15:00N 39°31' E 002°35'2 4.3
2017-Sep-11 14:31N 39°32' E 002°37'2 3.6
2017-Sep-11 13:58N 39°34' E 002°39'0 0.0
2017-Sep-11 13:26N 39°34' E 002°39'  

Dump ship's entire track history